Time;durP1;ratioP1;P1;durP2;ratioP2;P2;SDS_P1;SDS_P2;PMS_P1;PMS_P2;Temp;Humidity;BMP_temperature;BMP_pressure;BME280_temperature;BME280_humidity;BME280_pressure;Samples;Min_cycle;Max_cycle;Signal;HPM_P1;HPM_P2
2022/09/24 00:02:00;;;;;;;15.10;11.15;;;;;;;18.85;56.67;101181.84;5086606;28;20555;-63
2022/09/24 00:04:27;;;;;;;13.85;10.77;;;;;;;18.85;56.85;101181.84;5072758;28;20040;-63
2022/09/24 00:06:54;;;;;;;13.55;11.05;;;;;;;18.86;57.21;101180.81;5083137;28;20097;-64
2022/09/24 00:09:21;;;;;;;13.68;11.55;;;;;;;18.88;57.39;101186.09;5087715;28;20036;-64
2022/09/24 00:11:50;;;;;;;14.57;11.73;;;;;;;18.87;56.84;101184.41;5071812;28;20066;-63
2022/09/24 00:14:18;;;;;;;15.38;11.68;;;;;;;18.87;57.11;101176.22;5075993;28;20036;-62
2022/09/24 00:16:45;;;;;;;15.50;11.90;;;;;;;18.85;57.21;101175.53;5091833;28;20044;-63
2022/09/24 00:19:12;;;;;;;15.13;11.75;;;;;;;18.79;57.19;101182.44;5086830;28;20518;-63
2022/09/24 00:21:40;;;;;;;14.23;11.88;;;;;;;18.75;57.17;101185.63;5091910;28;20074;-63
2022/09/24 00:27:04;;;;;;;14.52;11.57;;;;;;;18.67;56.86;101187.25;5080583;28;20044;-63
2022/09/24 00:29:33;;;;;;;17.20;13.27;;;;;;;18.62;57.17;101175.97;5081153;28;20036;-62
2022/09/24 00:32:00;;;;;;;16.30;12.00;;;;;;;18.61;57.00;101176.09;5090071;28;20051;-62
2022/09/24 00:34:29;;;;;;;20.02;12.90;;;;;;;18.61;57.22;101176.97;5072177;28;20040;-63
2022/09/24 00:36:55;;;;;;;16.40;11.88;;;;;;;18.60;57.53;101171.66;5072670;28;20063;-63
2022/09/24 00:39:22;;;;;;;14.30;11.73;;;;;;;18.61;57.39;101170.66;5083668;28;20101;-63
2022/09/24 00:41:48;;;;;;;15.93;11.38;;;;;;;18.59;57.52;101176.25;5089981;28;20097;-63
2022/09/24 00:44:40;;;;;;;16.23;12.07;;;;;;;18.55;57.29;101174.81;5078076;28;20123;-63
2022/09/24 00:47:13;;;;;;;13.95;12.20;;;;;;;18.56;57.32;101168.38;5092284;28;20101;-63
2022/09/24 00:49:40;;;;;;;17.55;12.93;;;;;;;18.55;57.53;101161.22;5092094;28;20040;-62
2022/09/24 00:52:07;;;;;;;18.92;13.02;;;;;;;18.55;57.17;101161.22;5091265;28;20040;-62
2022/09/24 00:54:36;;;;;;;16.02;12.50;;;;;;;18.54;57.27;101156.78;5071839;28;20033;-63
2022/09/24 00:57:03;;;;;;;16.55;12.63;;;;;;;18.52;57.16;101160.66;5072237;28;20055;-64
2022/09/24 00:59:30;;;;;;;16.40;12.45;;;;;;;18.51;57.59;101156.22;5074845;28;20106;-63
2022/09/24 01:01:57;;;;;;;17.15;13.38;;;;;;;18.50;57.50;101147.22;5092031;28;20135;-62
2022/09/24 01:04:27;;;;;;;17.38;13.55;;;;;;;18.50;57.46;101147.22;5095911;28;20571;-63
2022/09/24 01:06:55;;;;;;;16.48;13.10;;;;;;;18.51;57.58;101142.63;5095180;28;20044;-62
2022/09/24 01:09:24;;;;;;;17.25;12.45;;;;;;;18.50;57.79;101141.78;5085648;28;20110;-63
2022/09/24 01:11:57;;;;;;;15.15;12.45;;;;;;;18.48;57.42;101141.06;5090995;28;20066;-63
2022/09/24 01:15:08;;;;;;;16.80;12.98;;;;;;;18.46;57.44;101145.81;5085183;28;20098;-63
2022/09/24 01:17:44;;;;;;;16.77;12.35;;;;;;;18.47;57.41;101135.78;4994025;28;20222;-63
2022/09/24 01:20:16;;;;;;;16.77;12.32;;;;;;;18.46;57.77;101124.06;5068350;28;20056;-63
2022/09/24 01:23:24;;;;;;;17.35;11.98;;;;;;;18.46;57.82;101128.63;5075335;28;20044;-63
2022/09/24 01:26:18;;;;;;;17.05;12.63;;;;;;;18.43;57.63;101125.22;4992889;28;20054;-63
2022/09/24 01:28:57;;;;;;;15.30;12.25;;;;;;;18.41;57.79;101121.78;5073987;28;20056;-63
2022/09/24 01:31:40;;;;;;;16.13;12.20;;;;;;;18.40;57.59;101120.09;5073802;28;20094;-63
2022/09/24 01:34:13;;;;;;;17.45;12.30;;;;;;;18.38;57.56;101113.94;5074490;28;20040;-63
2022/09/24 01:36:43;;;;;;;15.13;12.68;;;;;;;18.39;57.68;101112.06;5056582;28;20434;-63
2022/09/24 01:39:13;;;;;;;15.77;12.15;;;;;;;18.37;58.02;101114.94;5083077;28;20433;-63
2022/09/24 01:41:41;;;;;;;14.95;11.82;;;;;;;18.38;57.89;101111.22;5074150;28;20047;-63
2022/09/24 01:44:10;;;;;;;17.58;13.15;;;;;;;18.39;57.75;101115.66;5074704;28;20560;-63
2022/09/24 01:46:38;;;;;;;16.45;11.35;;;;;;;18.38;57.62;101105.78;5076431;28;20078;-64
2022/09/24 01:49:06;;;;;;;14.80;11.63;;;;;;;18.37;57.91;101104.06;5076040;28;20068;-63
2022/09/24 01:51:48;;;;;;;13.95;10.77;;;;;;;18.34;57.80;101104.38;5079477;28;20040;-64
2022/09/24 01:54:24;;;;;;;14.32;11.35;;;;;;;18.33;58.09;101094.50;5096205;28;20089;-63
2022/09/24 01:56:56;;;;;;;14.27;11.05;;;;;;;18.32;57.60;101091.94;5080951;28;20048;-63
2022/09/24 01:59:39;;;;;;;16.40;11.63;;;;;;;18.31;57.67;101093.81;5076721;28;20090;-63
2022/09/24 02:02:05;;;;;;;13.82;11.00;;;;;;;18.33;57.86;101097.22;5075420;28;20611;-63
2022/09/24 02:04:40;;;;;;;13.48;10.32;;;;;;;18.34;57.78;101095.38;5077848;28;20448;-63
2022/09/24 02:07:20;;;;;;;13.95;10.73;;;;;;;18.35;57.67;101092.50;5075693;28;20049;-63
2022/09/24 02:09:48;;;;;;;12.68;10.43;;;;;;;18.35;58.15;101092.50;5074298;28;20036;-63
2022/09/24 02:12:28;;;;;;;12.98;10.35;;;;;;;18.34;57.63;101093.50;5074806;28;20048;-63
2022/09/24 02:15:21;;;;;;;13.77;10.82;;;;;;;18.33;57.78;101077.34;5074432;28;20436;-64
2022/09/24 02:17:53;;;;;;;14.75;11.40;;;;;;;18.35;57.69;101080.75;5073811;28;20037;-63
2022/09/24 02:20:23;;;;;;;14.90;10.63;;;;;;;18.31;57.99;101085.66;5088445;28;20048;-63
2022/09/24 02:22:51;;;;;;;15.65;11.32;;;;;;;18.29;58.06;101084.94;5091608;28;20081;-63
2022/09/24 02:25:30;;;;;;;13.75;10.82;;;;;;;18.29;58.21;101084.94;5093998;28;20114;-63
2022/09/24 02:27:56;;;;;;;14.18;10.82;;;;;;;18.29;57.93;101081.38;5086202;28;20460;-63
2022/09/24 02:30:23;;;;;;;16.52;12.55;;;;;;;18.29;57.73;101078.66;5085293;28;20097;-63
2022/09/24 02:32:52;;;;;;;15.40;12.18;;;;;;;18.30;58.27;101078.50;5094003;28;20051;-63
2022/09/24 02:35:20;;;;;;;15.02;11.65;;;;;;;18.30;57.97;101080.38;5093900;28;20486;-63
2022/09/24 02:37:46;;;;;;;16.20;12.57;;;;;;;18.30;58.03;101081.22;5094097;28;20541;-64
2022/09/24 02:40:14;;;;;;;16.60;12.88;;;;;;;18.30;58.11;101073.06;5094266;28;20036;-64
2022/09/24 02:42:42;;;;;;;16.25;13.00;;;;;;;18.31;58.19;101079.34;5094121;28;20046;-64
2022/09/24 02:45:11;;;;;;;16.85;12.38;;;;;;;18.30;58.30;101072.22;5075839;28;20045;-64
2022/09/24 02:47:38;;;;;;;15.85;12.07;;;;;;;18.28;58.28;101075.09;5073736;28;20063;-64
2022/09/24 02:50:05;;;;;;;16.83;12.13;;;;;;;18.26;57.90;101071.66;5073521;28;20086;-64
2022/09/24 02:52:32;;;;;;;16.60;12.93;;;;;;;18.25;57.97;101063.66;5072334;28;20102;-64
2022/09/24 02:54:58;;;;;;;15.65;12.77;;;;;;;18.24;57.93;101060.09;5072239;28;20040;-64
2022/09/24 02:57:25;;;;;;;18.73;14.00;;;;;;;18.22;58.18;101059.38;5076818;28;20089;-64
2022/09/24 02:59:51;;;;;;;19.88;14.63;;;;;;;18.18;58.20;101062.56;5092622;28;20093;-64
2022/09/24 03:02:18;;;;;;;18.60;14.38;;;;;;;18.15;58.16;101061.00;5092563;28;20036;-64
2022/09/24 03:04:50;;;;;;;18.85;14.55;;;;;;;18.15;58.16;101065.59;5074640;28;20048;-63
2022/09/24 03:07:17;;;;;;;18.50;14.70;;;;;;;18.12;58.04;101064.03;5071866;28;20114;-65
2022/09/24 03:09:43;;;;;;;22.50;17.35;;;;;;;18.09;58.11;101061.63;5072364;28;20048;-64
2022/09/24 03:12:11;;;;;;;24.27;18.60;;;;;;;18.04;58.33;101062.06;5072481;28;20055;-64
2022/09/24 03:14:42;;;;;;;28.52;20.17;;;;;;;18.02;58.34;101057.78;5072628;28;20490;-64
2022/09/24 03:17:08;;;;;;;28.20;21.55;;;;;;;18.01;58.69;101059.66;5071887;28;20384;-64
2022/09/24 03:19:35;;;;;;;29.55;23.98;;;;;;;18.02;58.87;101060.50;5054064;28;20048;-64
2022/09/24 03:22:01;;;;;;;28.20;22.00;;;;;;;18.01;58.83;101058.81;5071397;28;20044;-64
2022/09/24 03:24:28;;;;;;;28.65;22.95;;;;;;;18.00;58.54;101055.22;5071824;28;20052;-64
2022/09/24 03:26:54;;;;;;;28.17;21.45;;;;;;;18.03;58.74;101051.34;5054721;28;20052;-64
2022/09/24 03:30:58;;;;;;;29.02;23.35;;;;;;;18.04;58.91;101055.78;5071736;28;20032;-64
2022/09/24 03:32:07;;;;;;;28.75;23.25;;;;;;;18.06;58.85;101051.06;5071484;28;20045;-64
2022/09/24 03:34:34;;;;;;;32.83;23.77;;;;;;;18.05;58.71;101052.06;5085235;28;20543;-64
2022/09/24 03:37:01;;;;;;;28.30;23.10;;;;;;;18.05;58.69;101054.78;5091794;28;20040;-64
2022/09/24 03:39:27;;;;;;;26.52;21.10;;;;;;;18.02;58.74;101055.94;5083742;28;20106;-63
2022/09/24 03:41:54;;;;;;;27.35;20.45;;;;;;;18.02;58.96;101052.34;5071474;28;20045;-63
2022/09/24 03:44:22;;;;;;;28.02;21.38;;;;;;;18.01;58.88;101053.38;5071613;28;20494;-64
2022/09/24 03:46:49;;;;;;;29.70;21.58;;;;;;;18.02;59.16;101046.94;5071354;28;20120;-65
2022/09/24 03:49:16;;;;;;;28.05;20.60;;;;;;;18.02;58.75;101052.34;5071864;28;20452;-63
2022/09/24 03:51:42;;;;;;;25.58;20.10;;;;;;;18.03;59.12;101041.34;5071655;28;20044;-64
2022/09/24 03:54:11;;;;;;;24.52;19.02;;;;;;;18.02;58.67;101047.78;5054285;28;20115;-63
2022/09/24 03:56:38;;;;;;;32.95;20.00;;;;;;;18.00;59.21;101041.66;5071407;28;20517;-64
2022/09/24 03:59:04;;;;;;;24.05;19.33;;;;;;;17.98;59.27;101049.09;5071500;28;20044;-64
2022/09/24 04:01:32;;;;;;;25.65;19.33;;;;;;;17.98;59.25;101046.38;5071360;28;20074;-64
2022/09/24 04:04:02;;;;;;;23.52;19.05;;;;;;;17.97;59.22;101047.38;5071525;28;20041;-63
2022/09/24 04:06:29;;;;;;;26.38;19.83;;;;;;;17.94;58.99;101052.25;5071635;28;20449;-64
2022/09/24 04:08:56;;;;;;;26.27;19.85;;;;;;;17.93;59.34;101042.41;5071441;28;20201;-65
2022/09/24 04:11:23;;;;;;;27.13;20.52;;;;;;;17.89;59.20;101036.41;5071350;28;20457;-64
2022/09/24 04:13:53;;;;;;;32.28;20.88;;;;;;;17.86;59.47;101038.59;5071826;28;20074;-63
2022/09/24 04:16:20;;;;;;;25.30;20.13;;;;;;;17.83;59.29;101033.41;5071225;28;20048;-64
2022/09/24 04:18:47;;;;;;;26.70;19.92;;;;;;;17.79;59.27;101030.16;5071443;28;20395;-64
2022/09/24 04:21:14;;;;;;;24.88;19.90;;;;;;;17.77;59.66;101033.00;5072668;28;20037;-63
2022/09/24 04:23:42;;;;;;;25.17;19.60;;;;;;;17.76;59.44;101027.72;5073605;28;20090;-64
2022/09/24 04:26:09;;;;;;;26.45;19.83;;;;;;;17.77;59.28;101022.16;5055711;28;20048;-64
2022/09/24 04:28:36;;;;;;;25.38;19.92;;;;;;;17.81;59.72;101019.13;5073589;28;20130;-63
2022/09/24 04:31:02;;;;;;;24.98;18.83;;;;;;;17.83;59.65;101017.13;5073592;28;20090;-64
2022/09/24 04:33:29;;;;;;;26.52;20.40;;;;;;;17.84;59.43;101013.44;5077436;28;20037;-64
2022/09/24 04:36:03;;;;;;;25.02;19.55;;;;;;;17.83;59.88;101012.53;5077782;28;20214;-64
2022/09/24 04:38:29;;;;;;;24.27;18.25;;;;;;;17.84;59.85;101019.72;5077878;28;20053;-64
2022/09/24 04:41:04;;;;;;;23.17;18.38;;;;;;;17.83;59.32;101011.69;5079613;28;20217;-64
2022/09/24 04:43:35;;;;;;;23.77;18.70;;;;;;;17.81;59.79;101014.56;5079907;28;20479;-65
2022/09/24 04:46:03;;;;;;;26.70;19.00;;;;;;;17.82;59.42;101020.84;5076060;28;20032;-63
2022/09/24 04:48:30;;;;;;;22.70;17.58;;;;;;;17.83;59.61;101015.25;5076381;28;20037;-64
2022/09/24 04:50:57;;;;;;;21.85;17.30;;;;;;;17.84;59.58;101016.16;5076128;28;20041;-64
2022/09/24 04:53:23;;;;;;;22.08;17.48;;;;;;;17.84;59.47;101018.88;5075926;28;20049;-63
2022/09/24 04:55:51;;;;;;;21.80;17.50;;;;;;;17.83;59.75;101023.41;5075575;28;20040;-64
2022/09/24 04:58:18;;;;;;;22.80;16.85;;;;;;;17.81;59.77;101010.97;5075507;28;20098;-63
2022/09/24 05:00:44;;;;;;;22.58;17.20;;;;;;;17.80;59.59;101015.56;5075055;28;20052;-64
2022/09/24 05:03:11;;;;;;;23.20;17.52;;;;;;;17.82;59.60;101020.84;5082597;28;20044;-63
2022/09/24 05:05:38;;;;;;;20.17;16.65;;;;;;;17.82;59.89;101015.41;5095230;28;20067;-64
2022/09/24 05:08:05;;;;;;;23.08;16.95;;;;;;;17.80;59.71;101021.00;5095347;28;20633;-63
2022/09/24 05:10:32;;;;;;;21.55;16.88;;;;;;;17.76;59.53;101020.44;5095786;28;20048;-65
2022/09/24 05:12:59;;;;;;;21.55;16.88;;;;;;;17.74;59.59;101025.16;5095789;28;20048;-63
2022/09/24 05:15:26;;;;;;;21.23;16.40;;;;;;;17.74;59.75;101024.31;5095625;28;20032;-64
2022/09/24 05:17:53;;;;;;;22.45;17.38;;;;;;;17.73;60.03;101025.31;5074092;28;20040;-64
2022/09/24 05:20:19;;;;;;;21.42;16.63;;;;;;;17.71;59.66;101027.34;5073340;28;20033;-63
2022/09/24 05:22:48;;;;;;;19.83;15.90;;;;;;;17.74;59.71;101029.75;5075274;28;20218;-63
2022/09/24 05:25:20;;;;;;;22.70;16.85;;;;;;;17.75;60.10;101034.16;5075516;28;20042;-64
2022/09/24 05:27:53;;;;;;;22.77;16.60;;;;;;;17.75;60.03;101028.75;5055606;28;20099;-64
2022/09/24 05:30:22;;;;;;;19.38;15.88;;;;;;;17.77;59.87;101033.00;5055219;28;20057;-63
2022/09/24 05:32:50;;;;;;;20.20;15.38;;;;;;;17.78;59.84;101023.00;5052808;28;20049;-63
2022/09/24 05:35:22;;;;;;;20.25;15.48;;;;;;;17.77;60.01;101029.44;5054166;28;20051;-63
2022/09/24 05:37:52;;;;;;;19.08;14.80;;;;;;;17.77;59.98;101026.72;5053988;28;20033;-64
2022/09/24 05:43:05;;;;;;;18.02;14.30;;;;;;;17.73;59.69;101028.88;5053972;28;20072;-63
2022/09/24 05:45:32;;;;;;;20.42;15.32;;;;;;;17.70;60.26;101031.91;5053062;28;20036;-63
2022/09/24 05:47:59;;;;;;;17.00;14.07;;;;;;;17.66;60.19;101030.50;5052550;28;20437;-63
2022/09/24 05:50:26;;;;;;;18.98;13.68;;;;;;;17.64;60.17;101034.34;5053751;28;20498;-63
2022/09/24 05:52:53;;;;;;;15.63;13.13;;;;;;;17.65;60.13;101036.91;5053302;28;20072;-63
2022/09/24 05:55:19;;;;;;;20.30;14.60;;;;;;;17.66;60.02;101035.03;5053820;28;20041;-63
2022/09/24 05:57:46;;;;;;;18.50;14.10;;;;;;;17.69;60.44;101038.34;5053546;28;20120;-64
2022/09/24 06:00:13;;;;;;;17.85;14.07;;;;;;;17.70;60.28;101036.50;5053634;28;20091;-63
2022/09/24 06:02:40;;;;;;;16.00;13.00;;;;;;;17.69;60.13;101041.06;5053424;28;20095;-63
2022/09/24 06:05:08;;;;;;;17.27;13.77;;;;;;;17.69;60.20;101054.66;5054556;28;20053;-63
2022/09/24 06:07:35;;;;;;;16.13;12.80;;;;;;;17.71;60.58;101052.63;5053681;28;20110;-64
2022/09/24 06:10:01;;;;;;;16.27;13.07;;;;;;;17.72;60.33;101048.91;5053403;28;20446;-63
2022/09/24 06:12:28;;;;;;;15.45;12.68;;;;;;;17.76;60.64;101057.63;5053798;28;20083;-64
2022/09/24 06:14:55;;;;;;;15.20;12.55;;;;;;;17.76;60.39;101052.19;5053591;28;20499;-63
2022/09/24 06:17:22;;;;;;;17.17;13.68;;;;;;;17.77;60.71;101056.63;5056840;28;20044;-63
2022/09/24 06:19:48;;;;;;;18.25;14.23;;;;;;;17.81;60.47;101051.72;5092251;28;20486;-63
2022/09/24 06:22:15;;;;;;;15.45;12.85;;;;;;;17.81;60.74;101059.88;5093153;28;20036;-63
2022/09/24 06:24:44;;;;;;;18.08;13.73;;;;;;;17.81;60.81;101052.59;5093378;28;20086;-63
2022/09/24 06:27:10;;;;;;;15.95;13.15;;;;;;;17.82;60.60;101058.88;5093393;28;20039;-63
2022/09/24 06:29:37;;;;;;;17.77;14.00;;;;;;;17.84;60.69;101051.47;5093425;28;20093;-64
2022/09/24 06:32:04;;;;;;;18.77;13.85;;;;;;;17.84;60.49;101057.75;5093010;28;20151;-64
2022/09/24 06:34:34;;;;;;;17.58;13.20;;;;;;;17.88;60.63;101056.44;5092869;28;20130;-64
2022/09/24 06:37:01;;;;;;;18.35;14.10;;;;;;;17.90;60.45;101059.88;5072969;28;20048;-63
2022/09/24 06:39:28;;;;;;;17.85;14.43;;;;;;;17.88;60.43;101064.59;5078208;28;20529;-63
2022/09/24 06:41:55;;;;;;;18.67;13.85;;;;;;;17.87;60.59;101071.03;5072877;28;20297;-63
2022/09/24 06:44:26;;;;;;;18.23;14.23;;;;;;;17.86;60.91;101072.03;5072449;28;20044;-63
2022/09/24 06:46:53;;;;;;;19.60;14.38;;;;;;;17.89;60.62;101065.44;5072484;28;20060;-63
2022/09/24 06:49:19;;;;;;;17.23;13.32;;;;;;;17.92;60.96;101067.88;5084564;28;20052;-63
2022/09/24 06:51:46;;;;;;;19.13;13.07;;;;;;;17.95;60.93;101073.00;5072206;28;20178;-63
2022/09/24 06:54:13;;;;;;;17.65;14.05;;;;;;;17.98;60.87;101080.84;5072187;28;20048;-63
2022/09/24 06:56:40;;;;;;;18.95;14.98;;;;;;;17.99;61.05;101072.53;5072404;28;20025;-63
2022/09/24 06:59:07;;;;;;;19.83;13.82;;;;;;;18.00;60.96;101076.97;5072584;28;20071;-64
2022/09/24 07:01:34;;;;;;;17.30;14.23;;;;;;;18.01;60.62;101075.97;5072496;28;20071;-63
2022/09/24 07:04:02;;;;;;;19.83;13.57;;;;;;;18.01;60.56;101081.41;5073766;28;20051;-63
2022/09/24 07:07:28;;;;;;;18.65;14.32;;;;;;;18.01;60.58;101080.53;5092287;28;20058;-64
2022/09/24 07:09:15;;;;;;;20.70;15.05;;;;;;;18.01;60.68;101073.25;5092441;28;20036;-64
2022/09/24 07:11:44;;;;;;;20.42;14.45;;;;;;;18.01;60.70;101086.84;5088457;28;20105;-63
2022/09/24 07:14:13;;;;;;;20.83;14.75;;;;;;;18.02;60.88;101082.25;5092405;28;20131;-65
2022/09/24 07:16:52;;;;;;;18.40;14.50;;;;;;;18.00;60.54;101084.28;5070150;27;20417;-63
2022/09/24 07:19:19;;;;;;;20.27;15.07;;;;;;;17.98;60.57;101094.44;5068918;28;20116;-63
2022/09/24 07:21:46;;;;;;;20.85;15.23;;;;;;;17.98;60.80;101091.72;5069550;28;20036;-63
2022/09/24 07:24:15;;;;;;;21.35;15.77;;;;;;;17.94;60.85;101095.75;5069832;28;20079;-63
2022/09/24 07:26:42;;;;;;;20.90;16.00;;;;;;;17.91;60.70;101094.19;5069682;28;20044;-63
2022/09/24 07:29:09;;;;;;;21.30;16.58;;;;;;;17.93;60.83;101094.03;5069744;28;20048;-63
2022/09/24 07:31:35;;;;;;;19.27;16.20;;;;;;;17.93;61.05;101096.75;5069526;28;20174;-64
2022/09/24 07:34:10;;;;;;;21.95;16.38;;;;;;;17.93;61.03;101099.47;5069306;28;20453;-64
2022/09/24 07:36:37;;;;;;;22.80;16.15;;;;;;;17.93;61.04;101102.19;5068722;28;20052;-64
2022/09/24 07:39:04;;;;;;;20.80;16.60;;;;;;;17.89;60.74;101098.06;5069135;28;20549;-64
2022/09/24 07:41:31;;;;;;;21.33;16.40;;;;;;;17.89;60.94;101100.78;5069011;28;20051;-63
2022/09/24 07:44:02;;;;;;;21.20;16.13;;;;;;;17.90;61.05;101099.75;5067778;28;20084;-63
2022/09/24 07:46:29;;;;;;;23.38;16.90;;;;;;;17.92;60.93;101103.19;5068569;28;20593;-63
2022/09/24 07:48:56;;;;;;;22.00;16.48;;;;;;;17.94;61.37;101101.19;5069965;28;20047;-63
2022/09/24 07:51:26;;;;;;;21.77;16.73;;;;;;;17.96;61.15;101108.16;5070769;28;20127;-64
2022/09/24 07:53:57;;;;;;;24.08;17.50;;;;;;;18.00;61.03;101111.44;5069791;28;20465;-64
2022/09/24 07:56:24;;;;;;;20.85;16.98;;;;;;;18.02;61.18;101112.16;5070347;28;20136;-64
2022/09/24 07:58:52;;;;;;;22.95;17.95;;;;;;;18.03;61.41;101113.84;5070339;28;20043;-64
2022/09/24 08:01:19;;;;;;;22.42;17.17;;;;;;;18.02;61.43;101110.28;5070835;28;20056;-63
2022/09/24 08:03:46;;;;;;;26.30;17.50;;;;;;;18.03;61.15;101116.56;5070860;28;20060;-64
2022/09/24 08:06:13;;;;;;;21.90;16.45;;;;;;;18.00;60.91;101115.00;5070211;28;20127;-63
2022/09/24 08:08:40;;;;;;;20.58;16.50;;;;;;;18.00;61.00;101119.59;5070853;28;20112;-64
2022/09/24 08:11:09;;;;;;;21.30;15.55;;;;;;;18.00;61.27;101117.72;5072363;28;20045;-64
2022/09/24 08:13:38;;;;;;;23.08;17.08;;;;;;;18.03;61.45;101119.28;5067946;28;20499;-65
2022/09/24 08:16:05;;;;;;;20.77;16.90;;;;;;;18.04;61.23;101113.72;5067192;28;20675;-64
2022/09/24 08:18:32;;;;;;;22.98;17.10;;;;;;;18.08;61.39;101122.41;5067662;28;20044;-64
2022/09/24 08:21:04;;;;;;;22.70;17.33;;;;;;;18.11;61.25;101130.28;5067113;28;20127;-65
2022/09/24 08:26:03;;;;;;;21.23;16.33;;;;;;;18.13;61.64;101130.13;5065916;27;20053;-64
2022/09/24 08:28:30;;;;;;;21.73;16.83;;;;;;;18.13;61.33;101136.41;5053931;28;20124;-65
2022/09/24 08:31:01;;;;;;;25.23;18.02;;;;;;;18.14;61.71;101129.13;5054171;28;20065;-64
2022/09/24 08:33:30;;;;;;;24.13;16.08;;;;;;;18.13;61.25;101128.25;5053938;28;20041;-67
2022/09/24 08:36:03;;;;;;;22.65;17.50;;;;;;;18.10;61.69;101136.72;5052618;28;20107;-64
2022/09/24 08:38:29;;;;;;;20.42;16.38;;;;;;;18.12;61.35;101134.69;5053601;28;20115;-65
2022/09/24 08:41:05;;;;;;;20.08;15.90;;;;;;;18.14;61.80;101134.56;5054219;28;20148;-64
2022/09/24 08:43:40;;;;;;;23.52;16.92;;;;;;;18.16;61.68;101137.97;5054049;28;20056;-66
2022/09/24 08:49:06;;;;;;;22.08;16.45;;;;;;;18.17;61.39;101140.53;5053445;28;20041;-65
2022/09/24 08:51:41;;;;;;;20.95;15.13;;;;;;;18.19;61.66;101137.66;5053834;28;20064;-65
2022/09/24 08:54:14;;;;;;;22.00;16.60;;;;;;;18.22;61.50;101142.81;5053578;28;20049;-65
2022/09/24 08:56:44;;;;;;;19.92;15.23;;;;;;;18.24;62.02;101146.22;5053455;28;20053;-64
2022/09/24 08:59:36;;;;;;;20.42;16.25;;;;;;;18.28;62.10;101134.91;5053852;28;20139;-64
2022/09/24 09:02:25;;;;;;;19.95;14.95;;;;;;;18.32;61.80;101149.03;5053013;28;20070;-64
2022/09/24 09:05:26;;;;;;;22.35;16.02;;;;;;;18.33;61.80;101148.88;5053479;28;20114;-64
2022/09/24 09:08:08;;;;;;;20.00;15.70;;;;;;;18.36;61.68;101151.31;5053237;28;20124;-63
2022/09/24 09:11:01;;;;;;;20.10;15.60;;;;;;;18.39;61.62;101159.16;5053584;28;20044;-64
2022/09/24 09:13:44;;;;;;;22.77;15.85;;;;;;;18.43;62.13;101154.28;5053266;28;20432;-64
2022/09/24 09:16:10;;;;;;;20.80;16.08;;;;;;;18.48;62.02;101157.38;5053394;28;20363;-65
2022/09/24 09:18:44;;;;;;;20.30;15.38;;;;;;;18.49;61.81;101156.38;5052743;28;20096;-65
2022/09/24 09:21:36;;;;;;;19.98;14.82;;;;;;;18.47;61.56;101154.81;5033276;28;20144;-64
2022/09/24 09:24:16;;;;;;;22.45;14.27;;;;;;;18.41;61.73;101164.44;5032878;28;20120;-64
2022/09/24 09:26:49;;;;;;;18.30;14.32;;;;;;;18.39;61.50;101164.59;5033212;28;20080;-63
2022/09/24 09:29:16;;;;;;;19.30;15.43;;;;;;;18.40;61.57;101169.03;5033382;28;20452;-63
2022/09/24 09:31:52;;;;;;;22.48;15.68;;;;;;;18.44;62.05;101161.44;5032921;28;20069;-63
2022/09/24 09:34:37;;;;;;;21.45;15.27;;;;;;;18.47;61.74;101163.84;5034229;28;20103;-63
2022/09/24 09:37:38;;;;;;;17.48;14.68;;;;;;;18.51;61.72;101162.53;5032907;28;20132;-63
2022/09/24 09:40:26;;;;;;;17.67;15.07;;;;;;;18.57;61.81;101164.63;5032344;28;20116;-64
2022/09/24 09:43:01;;;;;;;18.35;14.23;;;;;;;18.57;61.89;101164.63;5032408;28;20046;-64
2022/09/24 09:45:59;;;;;;;19.13;14.77;;;;;;;18.54;61.98;101167.66;5033197;28;20124;-63
2022/09/24 09:48:40;;;;;;;19.98;15.25;;;;;;;18.55;61.85;101161.22;5032500;28;20052;-63
2022/09/24 09:51:16;;;;;;;18.20;14.35;;;;;;;18.58;62.06;101162.75;5039652;28;20116;-63
2022/09/24 09:53:58;;;;;;;19.77;15.77;;;;;;;18.62;61.98;101161.50;5052315;28;20040;-63
2022/09/24 09:56:33;;;;;;;21.70;15.70;;;;;;;18.64;62.09;101165.78;5052945;28;20466;-63
2022/09/24 09:59:11;;;;;;;19.05;15.55;;;;;;;18.66;61.79;101168.38;5052704;28;20061;-63
2022/09/24 10:01:40;;;;;;;19.55;15.65;;;;;;;18.66;61.56;101155.63;5052307;28;20080;-64
2022/09/24 10:04:23;;;;;;;20.17;16.17;;;;;;;18.67;61.71;101164.63;5052833;28;20041;-64
2022/09/24 10:06:50;;;;;;;20.38;15.43;;;;;;;18.69;61.79;101168.91;5052714;28;20084;-63
2022/09/24 10:09:21;;;;;;;19.77;15.18;;;;;;;18.73;61.99;101170.31;5053076;28;20045;-63
2022/09/24 10:11:48;;;;;;;18.73;15.48;;;;;;;18.79;61.76;101170.72;5052809;28;20083;-63
2022/09/24 10:14:20;;;;;;;19.15;15.05;;;;;;;18.82;61.87;101171.25;5052184;28;20527;-63
2022/09/24 10:16:52;;;;;;;18.95;16.63;;;;;;;18.86;61.94;101166.34;5031153;28;20136;-64
2022/09/24 10:19:22;;;;;;;20.88;15.88;;;;;;;18.90;61.54;101160.44;5032693;28;20458;-64
2022/09/24 10:21:50;;;;;;;19.83;15.93;;;;;;;18.93;61.98;101159.28;5032454;28;20037;-63
2022/09/24 10:24:25;;;;;;;19.90;16.00;;;;;;;18.92;61.86;101155.72;5032813;28;20068;-63
2022/09/24 10:26:52;;;;;;;23.02;17.48;;;;;;;18.92;61.55;101160.28;5032717;28;20128;-64
2022/09/24 10:32:19;;;;;;;19.63;16.10;;;;;;;19.01;61.58;101153.91;5032616;28;20047;-63
2022/09/24 10:35:00;;;;;;;18.85;15.48;;;;;;;19.03;61.79;101155.47;5032579;28;20132;-63
2022/09/24 10:37:27;;;;;;;18.67;15.45;;;;;;;19.06;61.67;101157.03;5032569;28;20454;-63
2022/09/24 10:40:27;;;;;;;19.48;15.80;;;;;;;19.08;61.62;101156.88;5047620;28;20137;-63
2022/09/24 10:42:58;;;;;;;19.30;15.98;;;;;;;19.10;61.53;101163.88;5045126;28;20057;-63
2022/09/24 10:45:41;;;;;;;19.27;15.82;;;;;;;19.11;61.44;101159.28;5053129;28;20033;-63
2022/09/24 10:48:18;;;;;;;18.90;15.68;;;;;;;19.14;61.43;101164.41;5051442;28;20049;-63
2022/09/24 10:51:16;;;;;;;20.80;15.70;;;;;;;19.15;61.64;101168.84;5051624;28;20479;-63
2022/09/24 10:54:00;;;;;;;19.13;15.05;;;;;;;19.13;61.45;101166.28;5051716;28;20294;-64
2022/09/24 10:56:39;;;;;;;18.90;15.50;;;;;;;19.14;61.25;101162.53;5051890;28;20041;-63
2022/09/24 10:59:41;;;;;;;18.42;15.18;;;;;;;19.17;61.06;101169.53;5052255;28;20041;-63
2022/09/24 11:02:10;;;;;;;19.63;15.23;;;;;;;19.20;61.03;101169.22;5051881;28;20396;-63
2022/09/24 11:04:49;;;;;;;21.17;15.82;;;;;;;19.23;61.60;101168.91;5051956;28;20029;-63
2022/09/24 11:07:44;;;;;;;19.58;16.10;;;;;;;19.27;61.01;101164.84;5050806;28;20443;-63
2022/09/24 11:10:28;;;;;;;18.70;14.27;;;;;;;19.31;61.46;101167.09;5051326;28;20497;-63
2022/09/24 11:16:37;;;;;;;18.85;14.90;;;;;;;19.39;61.16;101176.38;5052060;28;20045;-64
2022/09/24 11:19:42;;;;;;;17.42;14.85;;;;;;;19.43;61.06;101173.19;5052186;28;20045;-63
2022/09/24 11:22:20;;;;;;;21.45;15.13;;;;;;;19.46;61.07;101167.44;5048302;28;20052;-63
2022/09/24 11:25:34;;;;;;;18.25;14.88;;;;;;;19.47;60.99;101174.59;5051490;28;20047;-63
2022/09/24 11:28:01;;;;;;;19.52;15.20;;;;;;;19.51;60.96;101186.88;5010050;28;20164;-63
2022/09/24 11:30:53;;;;;;;18.30;15.05;;;;;;;19.51;60.63;101186.88;5045648;28;20141;-63
2022/09/24 11:33:29;;;;;;;16.95;14.18;;;;;;;19.55;60.78;101191.03;5031892;28;20048;-63
2022/09/24 11:36:10;;;;;;;17.42;14.15;;;;;;;19.54;60.58;101191.19;5031777;28;20132;-63
2022/09/24 11:39:00;;;;;;;17.95;15.10;;;;;;;19.56;60.72;101186.44;5036988;28;20491;-64
2022/09/24 11:41:40;;;;;;;20.13;14.10;;;;;;;19.57;60.48;101180.81;5051575;28;20076;-63
2022/09/24 11:44:41;;;;;;;18.73;15.02;;;;;;;19.60;60.71;101179.66;5051983;28;20120;-63
2022/09/24 11:47:36;;;;;;;18.70;14.50;;;;;;;19.62;60.41;101183.06;5050634;28;20051;-63
2022/09/24 11:50:44;;;;;;;17.45;13.65;;;;;;;19.63;60.34;101182.91;5044422;28;20566;-63